sensor_id;sensor_type;location;lat;lon;timestamp;pressure;altitude;pressure_sealevel;temperature;humidity
17060;BME280;8646;49.716;9.266;2024-02-23T00:00:06;97961.41;;;10.17;64.30
17060;BME280;8646;49.716;9.266;2024-02-23T00:03:12;98001.53;;;10.46;64.55
17060;BME280;8646;49.716;9.266;2024-02-23T00:06:15;98015.88;;;10.46;63.46
17060;BME280;8646;49.716;9.266;2024-02-23T00:09:19;97997.09;;;10.45;62.54
17060;BME280;8646;49.716;9.266;2024-02-23T00:12:21;98020.31;;;10.36;62.79
17060;BME280;8646;49.716;9.266;2024-02-23T00:15:24;98029.13;;;10.38;61.10
17060;BME280;8646;49.716;9.266;2024-02-23T00:18:27;98037.22;;;10.27;61.37
17060;BME280;8646;49.716;9.266;2024-02-23T00:21:30;98062.03;;;10.21;62.01
17060;BME280;8646;49.716;9.266;2024-02-23T00:24:34;98042.25;;;10.20;61.78
17060;BME280;8646;49.716;9.266;2024-02-23T00:27:37;98059.75;;;10.15;62.19
17060;BME280;8646;49.716;9.266;2024-02-23T00:30:41;98055.69;;;10.09;62.80
17060;BME280;8646;49.716;9.266;2024-02-23T00:33:43;98086.63;;;10.05;62.55
17060;BME280;8646;49.716;9.266;2024-02-23T00:36:46;98077.66;;;10.05;63.31
17060;BME280;8646;49.716;9.266;2024-02-23T00:39:51;98088.34;;;10.06;63.03
17060;BME280;8646;49.716;9.266;2024-02-23T00:42:54;98088.22;;;10.08;63.11
17060;BME280;8646;49.716;9.266;2024-02-23T00:45:57;98078.16;;;10.10;63.42
17060;BME280;8646;49.716;9.266;2024-02-23T00:48:59;98081.38;;;10.15;63.71
17060;BME280;8646;49.716;9.266;2024-02-23T00:52:02;98094.59;;;10.19;61.50
17060;BME280;8646;49.716;9.266;2024-02-23T00:55:07;98115.63;;;10.14;61.72
17060;BME280;8646;49.716;9.266;2024-02-23T00:58:10;98125.28;;;10.18;61.21
17060;BME280;8646;49.716;9.266;2024-02-23T01:01:13;98121.19;;;10.13;61.44
17060;BME280;8646;49.716;9.266;2024-02-23T01:04:16;98143.88;;;10.10;62.05
17060;BME280;8646;49.716;9.266;2024-02-23T01:07:18;98157.63;;;10.07;61.58
17060;BME280;8646;49.716;9.266;2024-02-23T01:10:22;98142.25;;;10.08;61.56
17060;BME280;8646;49.716;9.266;2024-02-23T01:13:25;98127.16;;;10.05;61.14
17060;BME280;8646;49.716;9.266;2024-02-23T01:16:28;98124.69;;;10.02;60.56
17060;BME280;8646;49.716;9.266;2024-02-23T01:19:31;98140.72;;;9.92;61.15
17060;BME280;8646;49.716;9.266;2024-02-23T01:22:33;98162.69;;;9.88;60.64
17060;BME280;8646;49.716;9.266;2024-02-23T01:25:37;98162.25;;;9.81;60.51
17060;BME280;8646;49.716;9.266;2024-02-23T01:28:40;98173.09;;;9.69;60.78
17060;BME280;8646;49.716;9.266;2024-02-23T01:31:43;98177.13;;;9.50;61.83
17060;BME280;8646;49.716;9.266;2024-02-23T01:34:46;98182.97;;;9.44;62.10
17060;BME280;8646;49.716;9.266;2024-02-23T01:37:48;98163.97;;;9.33;62.35
17060;BME280;8646;49.716;9.266;2024-02-23T01:40:52;98183.53;;;9.24;62.85
17060;BME280;8646;49.716;9.266;2024-02-23T01:43:55;98172.50;;;9.27;63.21
17060;BME280;8646;49.716;9.266;2024-02-23T01:46:58;98180.16;;;9.33;62.80
17060;BME280;8646;49.716;9.266;2024-02-23T01:50:01;98192.13;;;9.42;62.42
17060;BME280;8646;49.716;9.266;2024-02-23T01:53:05;98196.38;;;9.46;62.56
17060;BME280;8646;49.716;9.266;2024-02-23T01:56:09;98201.41;;;9.50;61.49
17060;BME280;8646;49.716;9.266;2024-02-23T01:59:12;98200.75;;;9.60;61.35
17060;BME280;8646;49.716;9.266;2024-02-23T02:02:15;98193.09;;;9.53;61.31
17060;BME280;8646;49.716;9.266;2024-02-23T02:05:18;98205.63;;;9.54;61.54
17060;BME280;8646;49.716;9.266;2024-02-23T02:08:21;98207.88;;;9.61;61.59
17060;BME280;8646;49.716;9.266;2024-02-23T02:11:26;98209.94;;;9.57;61.83
17060;BME280;8646;49.716;9.266;2024-02-23T02:14:28;98221.38;;;9.61;61.46
17060;BME280;8646;49.716;9.266;2024-02-23T02:17:32;98202.59;;;9.59;61.69
17060;BME280;8646;49.716;9.266;2024-02-23T02:20:40;98184.19;;;9.40;61.73
17060;BME280;8646;49.716;9.266;2024-02-23T02:23:50;98243.19;;;9.57;61.95
17060;BME280;8646;49.716;9.266;2024-02-23T02:26:54;98260.47;;;9.68;62.03
17060;BME280;8646;49.716;9.266;2024-02-23T02:29:57;98279.09;;;9.47;64.36
17060;BME280;8646;49.716;9.266;2024-02-23T02:33:00;98281.31;;;9.15;67.35
17060;BME280;8646;49.716;9.266;2024-02-23T02:36:03;98288.94;;;8.96;67.97
17060;BME280;8646;49.716;9.266;2024-02-23T02:39:06;98309.63;;;8.83;67.84
17060;BME280;8646;49.716;9.266;2024-02-23T02:42:13;98277.44;;;8.67;68.36
17060;BME280;8646;49.716;9.266;2024-02-23T02:45:16;98288.38;;;8.51;69.30
17060;BME280;8646;49.716;9.266;2024-02-23T02:48:21;98316.59;;;8.46;69.85
17060;BME280;8646;49.716;9.266;2024-02-23T02:51:24;98317.78;;;8.41;69.93
17060;BME280;8646;49.716;9.266;2024-02-23T02:54:26;98315.34;;;8.37;69.68
17060;BME280;8646;49.716;9.266;2024-02-23T02:57:30;98329.25;;;8.31;69.95
17060;BME280;8646;49.716;9.266;2024-02-23T03:00:33;98325.09;;;8.25;70.17
17060;BME280;8646;49.716;9.266;2024-02-23T03:03:36;98325.28;;;8.22;70.25
17060;BME280;8646;49.716;9.266;2024-02-23T03:06:38;98325.00;;;8.13;70.88
17060;BME280;8646;49.716;9.266;2024-02-23T03:09:41;98312.03;;;8.05;70.79
17060;BME280;8646;49.716;9.266;2024-02-23T03:12:45;98313.28;;;7.99;71.20
17060;BME280;8646;49.716;9.266;2024-02-23T03:15:48;98310.88;;;7.95;71.29
17060;BME280;8646;49.716;9.266;2024-02-23T03:18:51;98318.22;;;7.93;71.14
17060;BME280;8646;49.716;9.266;2024-02-23T03:21:55;98336.59;;;7.86;70.97
17060;BME280;8646;49.716;9.266;2024-02-23T03:24:58;98330.50;;;7.83;71.27
17060;BME280;8646;49.716;9.266;2024-02-23T03:28:02;98337.16;;;7.77;71.31
17060;BME280;8646;49.716;9.266;2024-02-23T03:31:05;98327.75;;;7.70;71.33
17060;BME280;8646;49.716;9.266;2024-02-23T03:34:08;98335.13;;;7.66;71.59
17060;BME280;8646;49.716;9.266;2024-02-23T03:37:10;98317.91;;;7.55;72.04
17060;BME280;8646;49.716;9.266;2024-02-23T03:40:14;98345.41;;;7.60;71.66
17060;BME280;8646;49.716;9.266;2024-02-23T03:43:18;98277.91;;;7.20;72.09
17060;BME280;8646;49.716;9.266;2024-02-23T03:46:21;98343.00;;;7.55;72.17
17060;BME280;8646;49.716;9.266;2024-02-23T03:49:24;98355.09;;;7.62;72.45
17060;BME280;8646;49.716;9.266;2024-02-23T03:52:27;98347.53;;;7.69;72.59
17060;BME280;8646;49.716;9.266;2024-02-23T03:55:31;98338.91;;;7.78;72.50
17060;BME280;8646;49.716;9.266;2024-02-23T03:58:35;98341.38;;;7.81;72.70
17060;BME280;8646;49.716;9.266;2024-02-23T04:01:38;98325.44;;;7.78;72.45
17060;BME280;8646;49.716;9.266;2024-02-23T04:04:41;98322.81;;;7.77;72.63
17060;BME280;8646;49.716;9.266;2024-02-23T04:07:44;98343.97;;;7.69;72.59
17060;BME280;8646;49.716;9.266;2024-02-23T04:10:47;98343.19;;;7.66;72.49
17060;BME280;8646;49.716;9.266;2024-02-23T04:13:51;98341.16;;;7.56;72.70
17060;BME280;8646;49.716;9.266;2024-02-23T04:16:54;98350.41;;;7.52;72.89
17060;BME280;8646;49.716;9.266;2024-02-23T04:19:57;98358.38;;;7.53;72.95
17060;BME280;8646;49.716;9.266;2024-02-23T04:23:01;98365.69;;;7.51;73.18
17060;BME280;8646;49.716;9.266;2024-02-23T04:26:04;98373.53;;;7.54;73.48
17060;BME280;8646;49.716;9.266;2024-02-23T04:29:08;98371.56;;;7.58;73.47
17060;BME280;8646;49.716;9.266;2024-02-23T04:32:11;98377.31;;;7.66;73.36
17060;BME280;8646;49.716;9.266;2024-02-23T04:35:14;98377.91;;;7.71;73.30
17060;BME280;8646;49.716;9.266;2024-02-23T04:38:17;98390.88;;;7.79;73.40
17060;BME280;8646;49.716;9.266;2024-02-23T04:41:20;98380.81;;;7.82;73.16
17060;BME280;8646;49.716;9.266;2024-02-23T04:44:25;98377.94;;;7.85;73.17
17060;BME280;8646;49.716;9.266;2024-02-23T04:47:27;98370.50;;;7.89;73.24
17060;BME280;8646;49.716;9.266;2024-02-23T04:50:30;98381.59;;;7.84;73.20
17060;BME280;8646;49.716;9.266;2024-02-23T04:53:36;98378.69;;;7.73;73.14
17060;BME280;8646;49.716;9.266;2024-02-23T04:56:39;98388.66;;;7.71;73.28
17060;BME280;8646;49.716;9.266;2024-02-23T04:59:43;98383.66;;;7.65;73.70
17060;BME280;8646;49.716;9.266;2024-02-23T05:02:46;98375.97;;;7.59;73.89
17060;BME280;8646;49.716;9.266;2024-02-23T05:05:49;98384.44;;;7.53;73.84
17060;BME280;8646;49.716;9.266;2024-02-23T05:08:55;98371.72;;;7.55;73.67
17060;BME280;8646;49.716;9.266;2024-02-23T05:11:58;98376.53;;;7.50;74.01
17060;BME280;8646;49.716;9.266;2024-02-23T05:15:03;98380.28;;;7.47;73.94
17060;BME280;8646;49.716;9.266;2024-02-23T05:18:06;98375.09;;;7.44;73.73
17060;BME280;8646;49.716;9.266;2024-02-23T05:21:09;98377.28;;;7.38;74.08
17060;BME280;8646;49.716;9.266;2024-02-23T05:24:12;98376.44;;;7.37;73.71
17060;BME280;8646;49.716;9.266;2024-02-23T05:27:15;98369.78;;;7.28;73.86
17060;BME280;8646;49.716;9.266;2024-02-23T05:30:19;98356.97;;;7.18;74.34
17060;BME280;8646;49.716;9.266;2024-02-23T05:33:22;98367.72;;;7.18;74.20
17060;BME280;8646;49.716;9.266;2024-02-23T05:36:25;98365.13;;;7.16;74.52
17060;BME280;8646;49.716;9.266;2024-02-23T05:39:28;98365.84;;;7.04;74.72
17060;BME280;8646;49.716;9.266;2024-02-23T05:42:31;98378.09;;;6.94;75.35
17060;BME280;8646;49.716;9.266;2024-02-23T05:45:39;98373.09;;;6.88;75.87
17060;BME280;8646;49.716;9.266;2024-02-23T05:48:42;98376.47;;;6.76;76.59
17060;BME280;8646;49.716;9.266;2024-02-23T05:51:45;98371.47;;;6.70;77.49
17060;BME280;8646;49.716;9.266;2024-02-23T05:54:48;98366.19;;;6.53;77.76
17060;BME280;8646;49.716;9.266;2024-02-23T05:57:53;98376.78;;;6.56;78.26
17060;BME280;8646;49.716;9.266;2024-02-23T06:00:57;98389.16;;;6.42;78.45
17060;BME280;8646;49.716;9.266;2024-02-23T06:03:59;98396.69;;;6.36;78.51
17060;BME280;8646;49.716;9.266;2024-02-23T06:07:02;98403.88;;;6.35;79.05
17060;BME280;8646;49.716;9.266;2024-02-23T06:10:06;98395.91;;;6.34;79.69
17060;BME280;8646;49.716;9.266;2024-02-23T06:13:09;98412.38;;;6.43;80.28
17060;BME280;8646;49.716;9.266;2024-02-23T06:16:13;98425.47;;;6.49;80.57
17060;BME280;8646;49.716;9.266;2024-02-23T06:19:17;98418.72;;;6.58;80.89
17060;BME280;8646;49.716;9.266;2024-02-23T06:22:20;98421.59;;;6.55;80.83
17060;BME280;8646;49.716;9.266;2024-02-23T06:25:23;98429.13;;;6.48;80.40
17060;BME280;8646;49.716;9.266;2024-02-23T06:28:26;98419.94;;;6.37;80.45
17060;BME280;8646;49.716;9.266;2024-02-23T06:31:30;98439.00;;;6.32;80.11
17060;BME280;8646;49.716;9.266;2024-02-23T06:34:35;98432.47;;;6.21;80.22
17060;BME280;8646;49.716;9.266;2024-02-23T06:37:38;98446.91;;;6.18;80.25
17060;BME280;8646;49.716;9.266;2024-02-23T06:40:40;98439.06;;;6.15;80.18
17060;BME280;8646;49.716;9.266;2024-02-23T06:43:52;98450.22;;;6.07;80.00
17060;BME280;8646;49.716;9.266;2024-02-23T06:46:56;98448.56;;;6.05;80.17
17060;BME280;8646;49.716;9.266;2024-02-23T06:49:59;98445.88;;;6.05;80.06
17060;BME280;8646;49.716;9.266;2024-02-23T06:53:02;98450.44;;;6.03;80.17
17060;BME280;8646;49.716;9.266;2024-02-23T06:56:06;98454.94;;;6.02;80.01
17060;BME280;8646;49.716;9.266;2024-02-23T06:59:09;98448.25;;;5.94;80.58
17060;BME280;8646;49.716;9.266;2024-02-23T07:02:13;98460.66;;;5.96;80.25
17060;BME280;8646;49.716;9.266;2024-02-23T07:05:16;98452.50;;;5.81;80.53
17060;BME280;8646;49.716;9.266;2024-02-23T07:08:19;98467.38;;;5.88;80.51
17060;BME280;8646;49.716;9.266;2024-02-23T07:11:22;98465.59;;;5.87;80.69
17060;BME280;8646;49.716;9.266;2024-02-23T07:14:25;98467.22;;;5.91;80.62
17060;BME280;8646;49.716;9.266;2024-02-23T07:17:29;98478.41;;;5.99;80.54
17060;BME280;8646;49.716;9.266;2024-02-23T07:20:32;98481.09;;;5.99;80.45
17060;BME280;8646;49.716;9.266;2024-02-23T07:23:34;98485.28;;;6.04;80.87
17060;BME280;8646;49.716;9.266;2024-02-23T07:26:37;98483.13;;;6.11;81.71
17060;BME280;8646;49.716;9.266;2024-02-23T07:29:40;98490.94;;;6.16;81.54
17060;BME280;8646;49.716;9.266;2024-02-23T07:32:45;98479.44;;;6.29;81.77
17060;BME280;8646;49.716;9.266;2024-02-23T07:35:53;98488.31;;;6.47;81.30
17060;BME280;8646;49.716;9.266;2024-02-23T07:38:56;98493.28;;;6.55;80.99
17060;BME280;8646;49.716;9.266;2024-02-23T07:41:59;98495.63;;;6.61;80.74
17060;BME280;8646;49.716;9.266;2024-02-23T07:45:02;98501.59;;;6.66;80.94
17060;BME280;8646;49.716;9.266;2024-02-23T07:48:07;98495.63;;;6.76;80.18
17060;BME280;8646;49.716;9.266;2024-02-23T07:51:10;98508.72;;;6.82;80.20
17060;BME280;8646;49.716;9.266;2024-02-23T07:54:13;98489.81;;;6.84;79.92
17060;BME280;8646;49.716;9.266;2024-02-23T07:57:16;98507.94;;;7.12;79.11
17060;BME280;8646;49.716;9.266;2024-02-23T08:00:19;98497.34;;;7.24;78.94
17060;BME280;8646;49.716;9.266;2024-02-23T08:03:26;98502.78;;;7.39;78.18
17060;BME280;8646;49.716;9.266;2024-02-23T08:06:28;98502.94;;;7.51;78.02
17060;BME280;8646;49.716;9.266;2024-02-23T08:09:31;98491.63;;;7.60;77.48
17060;BME280;8646;49.716;9.266;2024-02-23T08:12:34;98489.91;;;7.59;76.81
17060;BME280;8646;49.716;9.266;2024-02-23T08:15:42;98497.06;;;7.75;76.57
17060;BME280;8646;49.716;9.266;2024-02-23T08:18:46;98496.88;;;7.78;76.25
17060;BME280;8646;49.716;9.266;2024-02-23T08:21:48;98492.38;;;7.78;75.91
17060;BME280;8646;49.716;9.266;2024-02-23T08:24:51;98490.97;;;7.71;75.33
17060;BME280;8646;49.716;9.266;2024-02-23T08:27:54;98480.13;;;7.73;74.62
17060;BME280;8646;49.716;9.266;2024-02-23T08:30:57;98493.25;;;7.63;73.84
17060;BME280;8646;49.716;9.266;2024-02-23T08:34:01;98492.38;;;7.62;73.45
17060;BME280;8646;49.716;9.266;2024-02-23T08:37:04;98478.84;;;7.64;72.93
17060;BME280;8646;49.716;9.266;2024-02-23T08:40:08;98479.53;;;7.68;72.35
17060;BME280;8646;49.716;9.266;2024-02-23T08:43:11;98486.38;;;7.73;71.47
17060;BME280;8646;49.716;9.266;2024-02-23T08:46:14;98482.25;;;7.82;71.33
17060;BME280;8646;49.716;9.266;2024-02-23T08:49:18;98475.38;;;7.92;70.79
17060;BME280;8646;49.716;9.266;2024-02-23T08:52:20;98470.38;;;8.00;70.24
17060;BME280;8646;49.716;9.266;2024-02-23T08:55:23;98472.41;;;8.11;69.62
17060;BME280;8646;49.716;9.266;2024-02-23T08:58:26;98471.25;;;8.29;68.93
17060;BME280;8646;49.716;9.266;2024-02-23T09:01:28;98473.38;;;8.52;67.81
17060;BME280;8646;49.716;9.266;2024-02-23T09:04:33;98467.09;;;8.80;67.66
17060;BME280;8646;49.716;9.266;2024-02-23T09:07:35;98462.41;;;9.10;67.08
17060;BME280;8646;49.716;9.266;2024-02-23T09:10:39;98440.38;;;9.31;66.24
17060;BME280;8646;49.716;9.266;2024-02-23T09:13:42;98465.81;;;9.66;65.41
17060;BME280;8646;49.716;9.266;2024-02-23T09:16:45;98453.66;;;9.86;64.06
17060;BME280;8646;49.716;9.266;2024-02-23T09:19:53;98451.19;;;10.08;62.70
17060;BME280;8646;49.716;9.266;2024-02-23T09:22:55;98453.81;;;10.22;63.03
17060;BME280;8646;49.716;9.266;2024-02-23T09:25:59;98473.38;;;10.39;61.91
17060;BME280;8646;49.716;9.266;2024-02-23T09:29:02;98471.34;;;10.42;59.62
17060;BME280;8646;49.716;9.266;2024-02-23T09:32:05;98461.91;;;10.48;59.51
17060;BME280;8646;49.716;9.266;2024-02-23T09:35:09;98455.53;;;10.49;58.25
17060;BME280;8646;49.716;9.266;2024-02-23T09:38:12;98451.44;;;10.43;58.52
17060;BME280;8646;49.716;9.266;2024-02-23T09:41:19;98448.84;;;10.42;59.03
17060;BME280;8646;49.716;9.266;2024-02-23T09:44:22;98442.88;;;10.49;58.01
17060;BME280;8646;49.716;9.266;2024-02-23T09:47:26;98435.75;;;10.48;57.26
17060;BME280;8646;49.716;9.266;2024-02-23T09:50:31;98440.69;;;10.67;57.58
17060;BME280;8646;49.716;9.266;2024-02-23T09:53:37;98433.63;;;10.77;57.30
17060;BME280;8646;49.716;9.266;2024-02-23T09:56:40;98444.72;;;10.98;57.13
17060;BME280;8646;49.716;9.266;2024-02-23T09:59:43;98456.25;;;11.13;56.55
17060;BME280;8646;49.716;9.266;2024-02-23T10:02:46;98448.31;;;11.22;55.70
17060;BME280;8646;49.716;9.266;2024-02-23T10:05:51;98440.41;;;11.19;55.28
17060;BME280;8646;49.716;9.266;2024-02-23T10:08:54;98467.94;;;11.37;54.46
17060;BME280;8646;49.716;9.266;2024-02-23T10:11:57;98456.25;;;11.36;52.68
17060;BME280;8646;49.716;9.266;2024-02-23T10:15:00;98449.25;;;11.34;52.91
17060;BME280;8646;49.716;9.266;2024-02-23T10:18:05;98461.63;;;11.49;53.02
17060;BME280;8646;49.716;9.266;2024-02-23T10:21:10;98452.53;;;11.61;53.36
17060;BME280;8646;49.716;9.266;2024-02-23T10:24:15;98410.75;;;11.41;53.40
17060;BME280;8646;49.716;9.266;2024-02-23T10:27:18;98459.53;;;11.76;52.97
17060;BME280;8646;49.716;9.266;2024-02-23T10:30:21;98408.72;;;11.56;52.63
17060;BME280;8646;49.716;9.266;2024-02-23T10:33:24;98460.81;;;11.95;52.42
17060;BME280;8646;49.716;9.266;2024-02-23T10:36:29;98471.44;;;12.09;52.50
17060;BME280;8646;49.716;9.266;2024-02-23T10:39:36;98462.38;;;12.21;52.16
17060;BME280;8646;49.716;9.266;2024-02-23T10:42:40;98468.28;;;12.26;51.34
17060;BME280;8646;49.716;9.266;2024-02-23T10:45:48;98456.47;;;12.16;51.15
17060;BME280;8646;49.716;9.266;2024-02-23T10:48:53;98454.97;;;12.12;51.16
17060;BME280;8646;49.716;9.266;2024-02-23T10:51:58;98456.38;;;11.94;51.08
17060;BME280;8646;49.716;9.266;2024-02-23T10:55:02;98464.94;;;11.76;50.73
17060;BME280;8646;49.716;9.266;2024-02-23T10:58:06;98448.63;;;11.65;51.48
17060;BME280;8646;49.716;9.266;2024-02-23T11:01:14;98461.53;;;11.74;51.03
17060;BME280;8646;49.716;9.266;2024-02-23T11:04:17;98465.50;;;11.69;51.23
17060;BME280;8646;49.716;9.266;2024-02-23T11:07:22;98460.16;;;11.56;51.03
17060;BME280;8646;49.716;9.266;2024-02-23T11:10:27;98465.91;;;11.52;51.78
17060;BME280;8646;49.716;9.266;2024-02-23T11:13:30;98466.94;;;11.51;52.04
17060;BME280;8646;49.716;9.266;2024-02-23T11:16:33;98462.38;;;11.51;51.58
17060;BME280;8646;49.716;9.266;2024-02-23T11:19:40;98456.97;;;11.51;51.61
17060;BME280;8646;49.716;9.266;2024-02-23T11:22:44;98450.03;;;11.47;51.58
17060;BME280;8646;49.716;9.266;2024-02-23T11:25:58;98452.97;;;11.44;51.98
17060;BME280;8646;49.716;9.266;2024-02-23T11:29:10;98439.13;;;11.36;52.07
17060;BME280;8646;49.716;9.266;2024-02-23T11:32:13;98451.97;;;11.45;52.02
17060;BME280;8646;49.716;9.266;2024-02-23T11:35:17;98440.75;;;11.38;51.74
17060;BME280;8646;49.716;9.266;2024-02-23T11:38:22;98449.81;;;11.50;51.84
17060;BME280;8646;49.716;9.266;2024-02-23T11:41:25;98434.06;;;11.55;51.65
17060;BME280;8646;49.716;9.266;2024-02-23T11:44:29;98433.47;;;11.87;50.57
17060;BME280;8646;49.716;9.266;2024-02-23T11:47:32;98430.06;;;12.07;50.82
17060;BME280;8646;49.716;9.266;2024-02-23T11:50:35;98414.16;;;12.24;50.30
17060;BME280;8646;49.716;9.266;2024-02-23T11:53:39;98420.25;;;12.39;49.68
17060;BME280;8646;49.716;9.266;2024-02-23T11:56:42;98431.34;;;12.47;49.61
17060;BME280;8646;49.716;9.266;2024-02-23T11:59:45;98430.38;;;12.48;49.65
17060;BME280;8646;49.716;9.266;2024-02-23T12:02:50;98433.81;;;12.39;49.70
17060;BME280;8646;49.716;9.266;2024-02-23T12:05:52;98429.72;;;12.34;49.59
17060;BME280;8646;49.716;9.266;2024-02-23T12:08:57;98424.91;;;12.15;50.05
17060;BME280;8646;49.716;9.266;2024-02-23T12:12:00;98428.34;;;12.06;50.38
17060;BME280;8646;49.716;9.266;2024-02-23T12:15:03;98435.22;;;11.99;50.38
17060;BME280;8646;49.716;9.266;2024-02-23T12:18:06;98435.94;;;12.01;50.90
17060;BME280;8646;49.716;9.266;2024-02-23T12:21:10;98440.66;;;12.10;50.59
17060;BME280;8646;49.716;9.266;2024-02-23T12:24:14;98435.38;;;12.19;50.54
17060;BME280;8646;49.716;9.266;2024-02-23T12:27:17;98434.06;;;12.47;50.35
17060;BME280;8646;49.716;9.266;2024-02-23T12:30:20;98428.38;;;12.73;50.07
17060;BME280;8646;49.716;9.266;2024-02-23T12:33:22;98427.13;;;12.88;49.05
17060;BME280;8646;49.716;9.266;2024-02-23T12:36:25;98406.13;;;13.01;48.74
17060;BME280;8646;49.716;9.266;2024-02-23T12:39:30;98417.31;;;13.08;49.01
17060;BME280;8646;49.716;9.266;2024-02-23T12:42:33;98417.94;;;13.11;49.11
17060;BME280;8646;49.716;9.266;2024-02-23T12:45:37;98423.25;;;13.13;48.95
17060;BME280;8646;49.716;9.266;2024-02-23T12:48:39;98397.34;;;12.97;48.83
17060;BME280;8646;49.716;9.266;2024-02-23T12:51:44;98412.88;;;13.07;49.09
17060;BME280;8646;49.716;9.266;2024-02-23T12:54:48;98410.78;;;13.10;48.98
17060;BME280;8646;49.716;9.266;2024-02-23T12:57:53;98418.81;;;13.12;48.46
17060;BME280;8646;49.716;9.266;2024-02-23T13:00:56;98423.41;;;13.00;48.65
17060;BME280;8646;49.716;9.266;2024-02-23T13:03:58;98409.97;;;12.87;48.59
17060;BME280;8646;49.716;9.266;2024-02-23T13:07:01;98410.56;;;12.91;48.91
17060;BME280;8646;49.716;9.266;2024-02-23T13:10:07;98416.00;;;12.91;49.10
17060;BME280;8646;49.716;9.266;2024-02-23T13:13:09;98409.84;;;12.89;49.57
17060;BME280;8646;49.716;9.266;2024-02-23T13:16:14;98414.53;;;12.87;49.16
17060;BME280;8646;49.716;9.266;2024-02-23T13:19:18;98410.09;;;12.75;48.82
17060;BME280;8646;49.716;9.266;2024-02-23T13:22:20;98416.03;;;12.57;49.05
17060;BME280;8646;49.716;9.266;2024-02-23T13:25:24;98417.78;;;12.47;49.00
17060;BME280;8646;49.716;9.266;2024-02-23T13:28:27;98419.25;;;12.40;49.42
17060;BME280;8646;49.716;9.266;2024-02-23T13:31:30;98401.75;;;12.22;49.95
17060;BME280;8646;49.716;9.266;2024-02-23T13:34:33;98426.88;;;12.35;49.91
17060;BME280;8646;49.716;9.266;2024-02-23T13:37:35;98423.81;;;12.29;49.84
17060;BME280;8646;49.716;9.266;2024-02-23T13:40:39;98416.88;;;12.24;50.41
17060;BME280;8646;49.716;9.266;2024-02-23T13:43:42;98425.88;;;12.25;49.99
17060;BME280;8646;49.716;9.266;2024-02-23T13:46:45;98425.66;;;12.28;50.19
17060;BME280;8646;49.716;9.266;2024-02-23T13:49:48;98413.31;;;12.35;49.76
17060;BME280;8646;49.716;9.266;2024-02-23T13:52:50;98414.81;;;12.39;49.89
17060;BME280;8646;49.716;9.266;2024-02-23T13:55:54;98395.59;;;12.31;49.86
17060;BME280;8646;49.716;9.266;2024-02-23T13:58:57;98407.66;;;12.38;49.76
17060;BME280;8646;49.716;9.266;2024-02-23T14:02:00;98356.13;;;12.05;49.54
17060;BME280;8646;49.716;9.266;2024-02-23T14:05:05;98421.22;;;12.27;49.56
17060;BME280;8646;49.716;9.266;2024-02-23T14:08:09;98415.53;;;12.19;49.87
17060;BME280;8646;49.716;9.266;2024-02-23T14:11:13;98409.84;;;12.11;50.29
17060;BME280;8646;49.716;9.266;2024-02-23T14:14:16;98406.78;;;12.04;49.85
17060;BME280;8646;49.716;9.266;2024-02-23T14:17:19;98401.47;;;12.03;50.32
17060;BME280;8646;49.716;9.266;2024-02-23T14:20:22;98402.44;;;12.02;50.11
17060;BME280;8646;49.716;9.266;2024-02-23T14:23:24;98390.38;;;12.06;50.16
17060;BME280;8646;49.716;9.266;2024-02-23T14:26:29;98368.09;;;12.13;50.12
17060;BME280;8646;49.716;9.266;2024-02-23T14:29:31;98325.56;;;12.03;50.49
17060;BME280;8646;49.716;9.266;2024-02-23T14:32:34;98364.78;;;12.32;50.75
17060;BME280;8646;49.716;9.266;2024-02-23T14:35:37;98355.38;;;12.25;50.78
17060;BME280;8646;49.716;9.266;2024-02-23T14:38:40;98350.22;;;12.11;50.96
17060;BME280;8646;49.716;9.266;2024-02-23T14:41:44;98345.78;;;11.99;51.06
17060;BME280;8646;49.716;9.266;2024-02-23T14:44:47;98348.09;;;11.92;51.18
17060;BME280;8646;49.716;9.266;2024-02-23T14:47:51;98342.91;;;11.78;51.58
17060;BME280;8646;49.716;9.266;2024-02-23T14:50:54;98344.06;;;11.63;51.94
17060;BME280;8646;49.716;9.266;2024-02-23T14:53:57;98350.84;;;11.57;52.20
17060;BME280;8646;49.716;9.266;2024-02-23T14:57:01;98349.59;;;11.50;52.52
17060;BME280;8646;49.716;9.266;2024-02-23T15:00:06;98354.09;;;11.38;52.83
17060;BME280;8646;49.716;9.266;2024-02-23T15:03:09;98332.41;;;11.03;53.02
17060;BME280;8646;49.716;9.266;2024-02-23T15:06:12;98365.31;;;11.10;53.36
17060;BME280;8646;49.716;9.266;2024-02-23T15:09:14;98369.13;;;11.07;53.61
17060;BME280;8646;49.716;9.266;2024-02-23T15:12:19;98351.38;;;11.03;53.79
17060;BME280;8646;49.716;9.266;2024-02-23T15:15:23;98368.66;;;11.14;53.52
17060;BME280;8646;49.716;9.266;2024-02-23T15:18:26;98375.44;;;11.19;53.70
17060;BME280;8646;49.716;9.266;2024-02-23T15:21:29;98371.63;;;11.22;53.66
17060;BME280;8646;49.716;9.266;2024-02-23T15:24:32;98361.78;;;11.21;53.80
17060;BME280;8646;49.716;9.266;2024-02-23T15:27:37;98370.16;;;11.18;52.85
17060;BME280;8646;49.716;9.266;2024-02-23T15:30:40;98368.66;;;11.14;52.66
17060;BME280;8646;49.716;9.266;2024-02-23T15:33:43;98367.03;;;11.11;52.72
17060;BME280;8646;49.716;9.266;2024-02-23T15:36:47;98349.03;;;10.99;53.20
17060;BME280;8646;49.716;9.266;2024-02-23T15:39:50;98377.34;;;11.06;53.09
17060;BME280;8646;49.716;9.266;2024-02-23T15:42:54;98370.97;;;11.07;53.22
17060;BME280;8646;49.716;9.266;2024-02-23T15:45:57;98362.94;;;11.05;52.88
17060;BME280;8646;49.716;9.266;2024-02-23T15:49:00;98376.59;;;11.04;53.05
17060;BME280;8646;49.716;9.266;2024-02-23T15:52:22;98357.03;;;11.00;53.43
17060;BME280;8646;49.716;9.266;2024-02-23T15:55:25;98367.22;;;10.97;53.43
17060;BME280;8646;49.716;9.266;2024-02-23T15:58:29;98368.94;;;10.98;52.95
17060;BME280;8646;49.716;9.266;2024-02-23T16:01:32;98361.19;;;10.93;53.08
17060;BME280;8646;49.716;9.266;2024-02-23T16:04:35;98363.03;;;10.93;53.05
17060;BME280;8646;49.716;9.266;2024-02-23T16:07:38;98356.50;;;10.95;53.28
17060;BME280;8646;49.716;9.266;2024-02-23T16:10:41;98354.50;;;10.86;53.08
17060;BME280;8646;49.716;9.266;2024-02-23T16:13:45;98350.75;;;10.76;53.69
17060;BME280;8646;49.716;9.266;2024-02-23T16:16:48;98347.97;;;10.65;53.80
17060;BME280;8646;49.716;9.266;2024-02-23T16:19:51;98348.88;;;10.53;53.92
17060;BME280;8646;49.716;9.266;2024-02-23T16:22:54;98343.81;;;10.48;54.37
17060;BME280;8646;49.716;9.266;2024-02-23T16:25:57;98351.16;;;10.46;54.10
17060;BME280;8646;49.716;9.266;2024-02-23T16:29:01;98353.75;;;10.48;53.91
17060;BME280;8646;49.716;9.266;2024-02-23T16:32:04;98363.06;;;10.44;54.66